sensor_id;sensor_type;location;lat;lon;timestamp;P1;durP1;ratioP1;P2;durP2;ratioP2
29362;SDS011;16349;53.672;10.014;2023-05-10T00:02:07;4.17;;;2.53;;
29362;SDS011;16349;53.672;10.014;2023-05-10T00:04:35;3.17;;;2.60;;
29362;SDS011;16349;53.672;10.014;2023-05-10T00:07:02;2.60;;;2.40;;
29362;SDS011;16349;53.672;10.014;2023-05-10T00:09:29;3.50;;;2.53;;
29362;SDS011;16349;53.672;10.014;2023-05-10T00:11:56;3.93;;;2.73;;
29362;SDS011;16349;53.672;10.014;2023-05-10T00:14:26;4.43;;;2.70;;
29362;SDS011;16349;53.672;10.014;2023-05-10T00:16:53;5.20;;;2.73;;
29362;SDS011;16349;53.672;10.014;2023-05-10T00:19:20;3.63;;;2.70;;
29362;SDS011;16349;53.672;10.014;2023-05-10T00:21:47;4.73;;;2.70;;
29362;SDS011;16349;53.672;10.014;2023-05-10T00:24:14;2.87;;;2.57;;
29362;SDS011;16349;53.672;10.014;2023-05-10T00:26:41;3.50;;;2.73;;
29362;SDS011;16349;53.672;10.014;2023-05-10T00:29:08;3.77;;;2.87;;
29362;SDS011;16349;53.672;10.014;2023-05-10T00:31:36;3.67;;;2.53;;
29362;SDS011;16349;53.672;10.014;2023-05-10T00:34:03;3.70;;;2.80;;
29362;SDS011;16349;53.672;10.014;2023-05-10T00:36:30;3.67;;;2.70;;
29362;SDS011;16349;53.672;10.014;2023-05-10T00:38:58;2.83;;;2.50;;
29362;SDS011;16349;53.672;10.014;2023-05-10T00:41:25;4.87;;;2.63;;
29362;SDS011;16349;53.672;10.014;2023-05-10T00:44:16;6.10;;;3.00;;
29362;SDS011;16349;53.672;10.014;2023-05-10T00:46:46;3.17;;;2.77;;
29362;SDS011;16349;53.672;10.014;2023-05-10T00:49:14;3.00;;;2.70;;
29362;SDS011;16349;53.672;10.014;2023-05-10T00:51:41;3.30;;;2.90;;
29362;SDS011;16349;53.672;10.014;2023-05-10T00:54:09;4.13;;;2.93;;
29362;SDS011;16349;53.672;10.014;2023-05-10T00:56:40;4.23;;;2.70;;
29362;SDS011;16349;53.672;10.014;2023-05-10T00:59:09;5.30;;;2.87;;
29362;SDS011;16349;53.672;10.014;2023-05-10T01:01:36;3.50;;;2.93;;
29362;SDS011;16349;53.672;10.014;2023-05-10T01:04:06;6.63;;;2.93;;
29362;SDS011;16349;53.672;10.014;2023-05-10T01:06:34;3.90;;;2.30;;
29362;SDS011;16349;53.672;10.014;2023-05-10T01:09:02;3.10;;;2.90;;
29362;SDS011;16349;53.672;10.014;2023-05-10T01:11:28;3.70;;;2.70;;
29362;SDS011;16349;53.672;10.014;2023-05-10T01:13:56;3.60;;;3.10;;
29362;SDS011;16349;53.672;10.014;2023-05-10T01:16:47;2.90;;;2.70;;
29362;SDS011;16349;53.672;10.014;2023-05-10T01:19:18;4.47;;;2.60;;
29362;SDS011;16349;53.672;10.014;2023-05-10T01:21:48;2.97;;;2.50;;
29362;SDS011;16349;53.672;10.014;2023-05-10T01:24:39;3.77;;;2.63;;
29362;SDS011;16349;53.672;10.014;2023-05-10T01:27:18;3.90;;;2.80;;
29362;SDS011;16349;53.672;10.014;2023-05-10T01:29:58;3.60;;;2.70;;
29362;SDS011;16349;53.672;10.014;2023-05-10T01:32:37;6.83;;;2.63;;
29362;SDS011;16349;53.672;10.014;2023-05-10T01:35:10;2.63;;;2.43;;
29362;SDS011;16349;53.672;10.014;2023-05-10T01:37:45;4.60;;;2.83;;
29362;SDS011;16349;53.672;10.014;2023-05-10T01:40:18;3.07;;;2.77;;
29362;SDS011;16349;53.672;10.014;2023-05-10T01:42:50;3.33;;;3.03;;
29362;SDS011;16349;53.672;10.014;2023-05-10T01:45:21;3.37;;;2.73;;
29362;SDS011;16349;53.672;10.014;2023-05-10T01:48:01;3.03;;;2.83;;
29362;SDS011;16349;53.672;10.014;2023-05-10T01:50:32;3.40;;;3.10;;
29362;SDS011;16349;53.672;10.014;2023-05-10T01:53:04;4.97;;;2.70;;
29362;SDS011;16349;53.672;10.014;2023-05-10T01:55:34;3.43;;;3.17;;
29362;SDS011;16349;53.672;10.014;2023-05-10T01:58:07;4.17;;;3.00;;
29362;SDS011;16349;53.672;10.014;2023-05-10T02:00:37;3.43;;;2.87;;
29362;SDS011;16349;53.672;10.014;2023-05-10T02:03:13;3.37;;;3.07;;
29362;SDS011;16349;53.672;10.014;2023-05-10T02:05:42;2.97;;;2.77;;
29362;SDS011;16349;53.672;10.014;2023-05-10T02:08:12;4.07;;;2.90;;
29362;SDS011;16349;53.672;10.014;2023-05-10T02:10:41;6.17;;;3.17;;
29362;SDS011;16349;53.672;10.014;2023-05-10T02:13:09;2.90;;;2.70;;
29362;SDS011;16349;53.672;10.014;2023-05-10T02:15:37;5.23;;;2.43;;
29362;SDS011;16349;53.672;10.014;2023-05-10T02:18:06;3.87;;;2.80;;
29362;SDS011;16349;53.672;10.014;2023-05-10T02:20:37;6.40;;;2.80;;
29362;SDS011;16349;53.672;10.014;2023-05-10T02:23:05;7.53;;;3.07;;
29362;SDS011;16349;53.672;10.014;2023-05-10T02:25:34;3.10;;;2.83;;
29362;SDS011;16349;53.672;10.014;2023-05-10T02:28:04;3.80;;;2.63;;
29362;SDS011;16349;53.672;10.014;2023-05-10T02:30:34;3.00;;;2.80;;
29362;SDS011;16349;53.672;10.014;2023-05-10T02:33:02;3.90;;;3.10;;
29362;SDS011;16349;53.672;10.014;2023-05-10T02:35:32;4.43;;;2.70;;
29362;SDS011;16349;53.672;10.014;2023-05-10T02:38:02;3.80;;;2.83;;
29362;SDS011;16349;53.672;10.014;2023-05-10T02:40:30;4.00;;;3.40;;
29362;SDS011;16349;53.672;10.014;2023-05-10T02:42:59;2.97;;;2.70;;
29362;SDS011;16349;53.672;10.014;2023-05-10T02:45:30;4.40;;;3.07;;
29362;SDS011;16349;53.672;10.014;2023-05-10T02:47:58;5.37;;;2.80;;
29362;SDS011;16349;53.672;10.014;2023-05-10T02:50:27;2.93;;;2.73;;
29362;SDS011;16349;53.672;10.014;2023-05-10T02:52:59;3.27;;;2.60;;
29362;SDS011;16349;53.672;10.014;2023-05-10T02:55:31;4.40;;;3.10;;
29362;SDS011;16349;53.672;10.014;2023-05-10T02:58:01;3.50;;;3.03;;
29362;SDS011;16349;53.672;10.014;2023-05-10T03:00:29;4.23;;;2.87;;
29362;SDS011;16349;53.672;10.014;2023-05-10T03:02:56;5.60;;;2.70;;
29362;SDS011;16349;53.672;10.014;2023-05-10T03:05:24;6.73;;;3.20;;
29362;SDS011;16349;53.672;10.014;2023-05-10T03:07:52;2.97;;;2.63;;
29362;SDS011;16349;53.672;10.014;2023-05-10T03:10:19;3.47;;;3.17;;
29362;SDS011;16349;53.672;10.014;2023-05-10T03:12:56;4.13;;;2.80;;
29362;SDS011;16349;53.672;10.014;2023-05-10T03:15:32;4.93;;;3.57;;
29362;SDS011;16349;53.672;10.014;2023-05-10T03:18:05;4.50;;;2.97;;
29362;SDS011;16349;53.672;10.014;2023-05-10T03:20:37;3.63;;;2.83;;
29362;SDS011;16349;53.672;10.014;2023-05-10T03:23:11;3.80;;;2.83;;
29362;SDS011;16349;53.672;10.014;2023-05-10T03:25:45;3.37;;;2.73;;
29362;SDS011;16349;53.672;10.014;2023-05-10T03:28:16;4.37;;;3.33;;
29362;SDS011;16349;53.672;10.014;2023-05-10T03:30:45;3.20;;;3.00;;
29362;SDS011;16349;53.672;10.014;2023-05-10T03:33:12;3.50;;;3.20;;
29362;SDS011;16349;53.672;10.014;2023-05-10T03:35:43;3.70;;;2.97;;
29362;SDS011;16349;53.672;10.014;2023-05-10T03:38:12;3.37;;;2.83;;
29362;SDS011;16349;53.672;10.014;2023-05-10T03:40:39;5.33;;;3.20;;
29362;SDS011;16349;53.672;10.014;2023-05-10T03:43:07;4.03;;;2.87;;
29362;SDS011;16349;53.672;10.014;2023-05-10T03:45:35;3.53;;;3.10;;
29362;SDS011;16349;53.672;10.014;2023-05-10T03:48:02;3.47;;;3.10;;
29362;SDS011;16349;53.672;10.014;2023-05-10T03:50:29;3.77;;;3.40;;
29362;SDS011;16349;53.672;10.014;2023-05-10T03:52:56;3.23;;;3.00;;
29362;SDS011;16349;53.672;10.014;2023-05-10T03:55:23;7.10;;;3.60;;
29362;SDS011;16349;53.672;10.014;2023-05-10T03:57:51;4.63;;;3.20;;
29362;SDS011;16349;53.672;10.014;2023-05-10T04:00:21;5.53;;;2.70;;
29362;SDS011;16349;53.672;10.014;2023-05-10T04:02:52;3.07;;;2.87;;
29362;SDS011;16349;53.672;10.014;2023-05-10T04:05:19;5.57;;;3.00;;
29362;SDS011;16349;53.672;10.014;2023-05-10T04:07:46;3.00;;;2.70;;
29362;SDS011;16349;53.672;10.014;2023-05-10T04:10:15;3.50;;;2.80;;
29362;SDS011;16349;53.672;10.014;2023-05-10T04:12:42;3.40;;;3.10;;
29362;SDS011;16349;53.672;10.014;2023-05-10T04:15:10;3.27;;;2.97;;
29362;SDS011;16349;53.672;10.014;2023-05-10T04:17:36;3.47;;;3.17;;
29362;SDS011;16349;53.672;10.014;2023-05-10T04:20:06;6.10;;;3.57;;
29362;SDS011;16349;53.672;10.014;2023-05-10T04:22:33;4.40;;;3.30;;
29362;SDS011;16349;53.672;10.014;2023-05-10T04:25:00;4.00;;;3.07;;
29362;SDS011;16349;53.672;10.014;2023-05-10T04:27:26;4.57;;;3.70;;
29362;SDS011;16349;53.672;10.014;2023-05-10T04:29:54;3.57;;;3.27;;
29362;SDS011;16349;53.672;10.014;2023-05-10T04:32:20;5.03;;;2.83;;
29362;SDS011;16349;53.672;10.014;2023-05-10T04:34:47;2.90;;;2.70;;
29362;SDS011;16349;53.672;10.014;2023-05-10T04:37:17;5.83;;;3.60;;
29362;SDS011;16349;53.672;10.014;2023-05-10T04:39:44;3.80;;;3.50;;
29362;SDS011;16349;53.672;10.014;2023-05-10T04:42:11;4.37;;;3.27;;
29362;SDS011;16349;53.672;10.014;2023-05-10T04:44:40;3.70;;;3.13;;
29362;SDS011;16349;53.672;10.014;2023-05-10T04:47:06;3.90;;;3.53;;
29362;SDS011;16349;53.672;10.014;2023-05-10T04:49:33;3.37;;;3.00;;
29362;SDS011;16349;53.672;10.014;2023-05-10T04:52:00;4.53;;;3.00;;
29362;SDS011;16349;53.672;10.014;2023-05-10T04:54:28;3.70;;;3.27;;
29362;SDS011;16349;53.672;10.014;2023-05-10T04:56:56;3.30;;;3.10;;
29362;SDS011;16349;53.672;10.014;2023-05-10T04:59:23;3.53;;;3.27;;
29362;SDS011;16349;53.672;10.014;2023-05-10T05:01:50;3.33;;;3.03;;
29362;SDS011;16349;53.672;10.014;2023-05-10T05:04:17;5.07;;;3.50;;
29362;SDS011;16349;53.672;10.014;2023-05-10T05:06:44;6.90;;;3.10;;
29362;SDS011;16349;53.672;10.014;2023-05-10T05:09:10;4.20;;;2.97;;
29362;SDS011;16349;53.672;10.014;2023-05-10T05:11:39;4.07;;;3.40;;
29362;SDS011;16349;53.672;10.014;2023-05-10T05:14:06;7.57;;;3.57;;
29362;SDS011;16349;53.672;10.014;2023-05-10T05:16:33;3.73;;;3.30;;
29362;SDS011;16349;53.672;10.014;2023-05-10T05:19:00;12.80;;;3.50;;
29362;SDS011;16349;53.672;10.014;2023-05-10T05:21:27;3.40;;;3.10;;
29362;SDS011;16349;53.672;10.014;2023-05-10T05:23:54;4.47;;;3.20;;
29362;SDS011;16349;53.672;10.014;2023-05-10T05:26:21;4.63;;;3.57;;
29362;SDS011;16349;53.672;10.014;2023-05-10T05:28:49;4.10;;;3.10;;
29362;SDS011;16349;53.672;10.014;2023-05-10T05:31:19;4.33;;;3.93;;
29362;SDS011;16349;53.672;10.014;2023-05-10T05:33:46;5.43;;;3.43;;
29362;SDS011;16349;53.672;10.014;2023-05-10T05:36:14;3.40;;;3.10;;
29362;SDS011;16349;53.672;10.014;2023-05-10T05:38:41;3.77;;;3.03;;
29362;SDS011;16349;53.672;10.014;2023-05-10T05:41:08;3.90;;;3.27;;
29362;SDS011;16349;53.672;10.014;2023-05-10T05:43:35;3.93;;;3.30;;
29362;SDS011;16349;53.672;10.014;2023-05-10T05:46:04;5.97;;;3.07;;
29362;SDS011;16349;53.672;10.014;2023-05-10T05:48:32;6.53;;;3.73;;
29362;SDS011;16349;53.672;10.014;2023-05-10T05:50:59;5.83;;;3.40;;
29362;SDS011;16349;53.672;10.014;2023-05-10T05:53:25;6.20;;;3.20;;
29362;SDS011;16349;53.672;10.014;2023-05-10T05:55:52;4.83;;;3.07;;
29362;SDS011;16349;53.672;10.014;2023-05-10T05:58:20;4.23;;;2.83;;
29362;SDS011;16349;53.672;10.014;2023-05-10T06:00:47;4.13;;;3.73;;
29362;SDS011;16349;53.672;10.014;2023-05-10T06:03:15;4.33;;;3.23;;
29362;SDS011;16349;53.672;10.014;2023-05-10T06:05:42;5.57;;;3.83;;
29362;SDS011;16349;53.672;10.014;2023-05-10T06:08:09;4.23;;;3.30;;
29362;SDS011;16349;53.672;10.014;2023-05-10T06:10:35;4.17;;;3.87;;
29362;SDS011;16349;53.672;10.014;2023-05-10T06:13:03;4.10;;;3.43;;
29362;SDS011;16349;53.672;10.014;2023-05-10T06:15:30;4.23;;;3.57;;
29362;SDS011;16349;53.672;10.014;2023-05-10T06:17:57;4.23;;;3.23;;
29362;SDS011;16349;53.672;10.014;2023-05-10T06:20:25;3.43;;;3.10;;
29362;SDS011;16349;53.672;10.014;2023-05-10T06:22:52;3.43;;;3.10;;
29362;SDS011;16349;53.672;10.014;2023-05-10T06:25:19;4.17;;;3.20;;
29362;SDS011;16349;53.672;10.014;2023-05-10T06:27:46;5.40;;;3.73;;
29362;SDS011;16349;53.672;10.014;2023-05-10T06:30:14;3.83;;;3.43;;
29362;SDS011;16349;53.672;10.014;2023-05-10T06:32:41;4.50;;;3.27;;
29362;SDS011;16349;53.672;10.014;2023-05-10T06:35:11;3.50;;;3.20;;
29362;SDS011;16349;53.672;10.014;2023-05-10T06:37:39;3.87;;;3.27;;
29362;SDS011;16349;53.672;10.014;2023-05-10T06:40:28;4.57;;;3.20;;
29362;SDS011;16349;53.672;10.014;2023-05-10T06:42:55;3.80;;;3.50;;
29362;SDS011;16349;53.672;10.014;2023-05-10T06:45:44;3.40;;;3.07;;
29362;SDS011;16349;53.672;10.014;2023-05-10T06:48:11;5.03;;;3.80;;
29362;SDS011;16349;53.672;10.014;2023-05-10T06:50:38;4.47;;;3.33;;
29362;SDS011;16349;53.672;10.014;2023-05-10T06:53:07;5.63;;;2.97;;
29362;SDS011;16349;53.672;10.014;2023-05-10T06:55:33;3.73;;;2.83;;
29362;SDS011;16349;53.672;10.014;2023-05-10T06:58:00;3.60;;;3.37;;
29362;SDS011;16349;53.672;10.014;2023-05-10T07:00:27;4.33;;;3.43;;
29362;SDS011;16349;53.672;10.014;2023-05-10T07:02:54;4.70;;;3.43;;
29362;SDS011;16349;53.672;10.014;2023-05-10T07:05:21;4.70;;;3.20;;
29362;SDS011;16349;53.672;10.014;2023-05-10T07:07:48;3.77;;;3.30;;
29362;SDS011;16349;53.672;10.014;2023-05-10T07:10:16;5.23;;;3.37;;
29362;SDS011;16349;53.672;10.014;2023-05-10T07:12:43;4.63;;;3.00;;
29362;SDS011;16349;53.672;10.014;2023-05-10T07:15:09;4.10;;;3.70;;
29362;SDS011;16349;53.672;10.014;2023-05-10T07:17:37;3.50;;;3.17;;
29362;SDS011;16349;53.672;10.014;2023-05-10T07:20:04;4.80;;;3.73;;
29362;SDS011;16349;53.672;10.014;2023-05-10T07:22:32;8.40;;;3.37;;
29362;SDS011;16349;53.672;10.014;2023-05-10T07:24:58;6.73;;;3.70;;
29362;SDS011;16349;53.672;10.014;2023-05-10T07:27:26;3.83;;;3.07;;
29362;SDS011;16349;53.672;10.014;2023-05-10T07:29:53;6.37;;;3.73;;
29362;SDS011;16349;53.672;10.014;2023-05-10T07:32:21;4.97;;;3.47;;
29362;SDS011;16349;53.672;10.014;2023-05-10T07:34:48;3.50;;;3.20;;
29362;SDS011;16349;53.672;10.014;2023-05-10T07:37:14;4.50;;;3.57;;
29362;SDS011;16349;53.672;10.014;2023-05-10T07:39:41;3.30;;;3.00;;
29362;SDS011;16349;53.672;10.014;2023-05-10T07:42:08;5.40;;;3.50;;
29362;SDS011;16349;53.672;10.014;2023-05-10T07:44:36;3.83;;;3.20;;
29362;SDS011;16349;53.672;10.014;2023-05-10T07:47:02;3.80;;;3.20;;
29362;SDS011;16349;53.672;10.014;2023-05-10T07:49:29;3.50;;;3.20;;
29362;SDS011;16349;53.672;10.014;2023-05-10T07:51:56;3.93;;;3.13;;
29362;SDS011;16349;53.672;10.014;2023-05-10T07:54:22;5.60;;;3.30;;
29362;SDS011;16349;53.672;10.014;2023-05-10T07:56:49;3.93;;;3.30;;
29362;SDS011;16349;53.672;10.014;2023-05-10T07:59:17;4.53;;;3.40;;
29362;SDS011;16349;53.672;10.014;2023-05-10T08:01:46;3.50;;;3.20;;
29362;SDS011;16349;53.672;10.014;2023-05-10T08:04:13;2.73;;;2.50;;
29362;SDS011;16349;53.672;10.014;2023-05-10T08:06:42;5.23;;;3.23;;
29362;SDS011;16349;53.672;10.014;2023-05-10T08:09:09;3.40;;;3.20;;
29362;SDS011;16349;53.672;10.014;2023-05-10T08:11:36;3.83;;;3.27;;
29362;SDS011;16349;53.672;10.014;2023-05-10T08:14:03;4.07;;;3.37;;
29362;SDS011;16349;53.672;10.014;2023-05-10T08:16:29;4.03;;;3.67;;
29362;SDS011;16349;53.672;10.014;2023-05-10T08:18:58;6.07;;;3.50;;
29362;SDS011;16349;53.672;10.014;2023-05-10T08:21:25;3.80;;;3.50;;
29362;SDS011;16349;53.672;10.014;2023-05-10T08:23:52;3.83;;;3.53;;
29362;SDS011;16349;53.672;10.014;2023-05-10T08:26:18;4.57;;;3.37;;
29362;SDS011;16349;53.672;10.014;2023-05-10T08:28:45;3.73;;;3.43;;
29362;SDS011;16349;53.672;10.014;2023-05-10T08:31:14;3.30;;;3.00;;
29362;SDS011;16349;53.672;10.014;2023-05-10T08:33:41;4.33;;;3.93;;
29362;SDS011;16349;53.672;10.014;2023-05-10T08:36:10;3.57;;;3.27;;
29362;SDS011;16349;53.672;10.014;2023-05-10T08:38:39;5.90;;;3.53;;
29362;SDS011;16349;53.672;10.014;2023-05-10T08:41:05;4.33;;;3.60;;
29362;SDS011;16349;53.672;10.014;2023-05-10T08:43:32;6.30;;;3.77;;
29362;SDS011;16349;53.672;10.014;2023-05-10T08:46:02;4.33;;;3.53;;
29362;SDS011;16349;53.672;10.014;2023-05-10T08:48:33;6.93;;;3.50;;
29362;SDS011;16349;53.672;10.014;2023-05-10T08:51:00;4.53;;;3.60;;
29362;SDS011;16349;53.672;10.014;2023-05-10T08:53:31;4.00;;;3.60;;
29362;SDS011;16349;53.672;10.014;2023-05-10T08:56:00;3.83;;;3.53;;
29362;SDS011;16349;53.672;10.014;2023-05-10T08:58:28;4.70;;;4.00;;
29362;SDS011;16349;53.672;10.014;2023-05-10T09:00:56;3.67;;;3.37;;
29362;SDS011;16349;53.672;10.014;2023-05-10T09:03:23;3.87;;;3.50;;
29362;SDS011;16349;53.672;10.014;2023-05-10T09:05:50;5.20;;;4.20;;
29362;SDS011;16349;53.672;10.014;2023-05-10T09:08:17;7.27;;;4.30;;
29362;SDS011;16349;53.672;10.014;2023-05-10T09:10:46;4.57;;;3.80;;
29362;SDS011;16349;53.672;10.014;2023-05-10T09:13:14;3.60;;;3.30;;
29362;SDS011;16349;53.672;10.014;2023-05-10T09:15:41;4.93;;;4.23;;
29362;SDS011;16349;53.672;10.014;2023-05-10T09:18:09;5.30;;;4.03;;
29362;SDS011;16349;53.672;10.014;2023-05-10T09:20:36;3.83;;;3.53;;
29362;SDS011;16349;53.672;10.014;2023-05-10T09:23:02;5.87;;;4.00;;
29362;SDS011;16349;53.672;10.014;2023-05-10T09:25:30;4.87;;;3.67;;
29362;SDS011;16349;53.672;10.014;2023-05-10T09:27:59;4.13;;;3.77;;
29362;SDS011;16349;53.672;10.014;2023-05-10T09:30:26;4.27;;;3.90;;
29362;SDS011;16349;53.672;10.014;2023-05-10T09:32:54;4.13;;;3.73;;
29362;SDS011;16349;53.672;10.014;2023-05-10T09:35:22;6.30;;;3.80;;
29362;SDS011;16349;53.672;10.014;2023-05-10T09:37:51;6.40;;;4.13;;
29362;SDS011;16349;53.672;10.014;2023-05-10T09:40:20;6.13;;;4.00;;
29362;SDS011;16349;53.672;10.014;2023-05-10T09:42:51;4.57;;;4.17;;
29362;SDS011;16349;53.672;10.014;2023-05-10T09:45:21;4.40;;;4.00;;
29362;SDS011;16349;53.672;10.014;2023-05-10T09:47:49;7.20;;;3.90;;
29362;SDS011;16349;53.672;10.014;2023-05-10T09:50:16;6.63;;;4.20;;
29362;SDS011;16349;53.672;10.014;2023-05-10T09:52:46;5.13;;;4.13;;
29362;SDS011;16349;53.672;10.014;2023-05-10T09:55:14;5.10;;;4.27;;
29362;SDS011;16349;53.672;10.014;2023-05-10T09:57:41;4.83;;;4.40;;
29362;SDS011;16349;53.672;10.014;2023-05-10T10:00:08;4.70;;;4.30;;
29362;SDS011;16349;53.672;10.014;2023-05-10T10:02:43;5.47;;;3.97;;
29362;SDS011;16349;53.672;10.014;2023-05-10T10:05:11;5.90;;;4.37;;
29362;SDS011;16349;53.672;10.014;2023-05-10T10:07:38;9.23;;;4.43;;
29362;SDS011;16349;53.672;10.014;2023-05-10T10:10:07;9.80;;;4.60;;
29362;SDS011;16349;53.672;10.014;2023-05-10T10:12:36;4.70;;;4.20;;
29362;SDS011;16349;53.672;10.014;2023-05-10T10:15:03;4.93;;;3.93;;
29362;SDS011;16349;53.672;10.014;2023-05-10T10:17:32;5.40;;;4.90;;
29362;SDS011;16349;53.672;10.014;2023-05-10T10:20:03;7.10;;;4.97;;
29362;SDS011;16349;53.672;10.014;2023-05-10T10:22:31;7.27;;;5.00;;
29362;SDS011;16349;53.672;10.014;2023-05-10T10:24:57;6.90;;;5.27;;
29362;SDS011;16349;53.672;10.014;2023-05-10T10:27:26;6.67;;;5.20;;
29362;SDS011;16349;53.672;10.014;2023-05-10T10:30:09;6.17;;;5.57;;
29362;SDS011;16349;53.672;10.014;2023-05-10T10:32:48;8.47;;;5.93;;
29362;SDS011;16349;53.672;10.014;2023-05-10T10:35:29;8.00;;;6.03;;
29362;SDS011;16349;53.672;10.014;2023-05-10T10:37:57;8.67;;;6.43;;
29362;SDS011;16349;53.672;10.014;2023-05-10T10:40:25;9.03;;;6.63;;
29362;SDS011;16349;53.672;10.014;2023-05-10T10:42:53;10.13;;;6.63;;
29362;SDS011;16349;53.672;10.014;2023-05-10T10:45:21;10.60;;;6.83;;
29362;SDS011;16349;53.672;10.014;2023-05-10T10:47:49;10.20;;;6.87;;
29362;SDS011;16349;53.672;10.014;2023-05-10T10:50:46;9.30;;;6.63;;
29362;SDS011;16349;53.672;10.014;2023-05-10T10:53:13;7.63;;;6.90;;
29362;SDS011;16349;53.672;10.014;2023-05-10T10:55:45;10.27;;;6.73;;
29362;SDS011;16349;53.672;10.014;2023-05-10T10:58:16;7.90;;;7.10;;
29362;SDS011;16349;53.672;10.014;2023-05-10T11:01:08;8.23;;;7.40;;
29362;SDS011;16349;53.672;10.014;2023-05-10T11:03:36;8.33;;;7.43;;
29362;SDS011;16349;53.672;10.014;2023-05-10T11:06:05;8.83;;;7.80;;
29362;SDS011;16349;53.672;10.014;2023-05-10T11:08:33;9.33;;;6.77;;
29362;SDS011;16349;53.672;10.014;2023-05-10T11:11:02;9.07;;;7.43;;
29362;SDS011;16349;53.672;10.014;2023-05-10T11:13:32;7.70;;;6.93;;
29362;SDS011;16349;53.672;10.014;2023-05-10T11:16:09;7.80;;;6.70;;
29362;SDS011;16349;53.672;10.014;2023-05-10T11:18:37;7.63;;;6.87;;
29362;SDS011;16349;53.672;10.014;2023-05-10T11:21:07;8.17;;;7.33;;
29362;SDS011;16349;53.672;10.014;2023-05-10T11:23:47;8.17;;;7.37;;
29362;SDS011;16349;53.672;10.014;2023-05-10T11:26:15;9.03;;;7.60;;
29362;SDS011;16349;53.672;10.014;2023-05-10T11:28:42;10.77;;;7.00;;
29362;SDS011;16349;53.672;10.014;2023-05-10T11:31:10;9.47;;;7.50;;
29362;SDS011;16349;53.672;10.014;2023-05-10T11:33:43;7.80;;;7.10;;
29362;SDS011;16349;53.672;10.014;2023-05-10T11:36:13;8.03;;;7.23;;
29362;SDS011;16349;53.672;10.014;2023-05-10T11:38:41;8.40;;;6.83;;
29362;SDS011;16349;53.672;10.014;2023-05-10T11:41:08;9.10;;;7.70;;
29362;SDS011;16349;53.672;10.014;2023-05-10T11:43:36;9.00;;;6.70;;
29362;SDS011;16349;53.672;10.014;2023-05-10T11:46:04;8.50;;;7.20;;
29362;SDS011;16349;53.672;10.014;2023-05-10T11:48:31;8.17;;;7.43;;
29362;SDS011;16349;53.672;10.014;2023-05-10T11:51:00;8.93;;;8.13;;
29362;SDS011;16349;53.672;10.014;2023-05-10T11:53:28;8.47;;;7.77;;
29362;SDS011;16349;53.672;10.014;2023-05-10T11:56:02;10.20;;;7.93;;
29362;SDS011;16349;53.672;10.014;2023-05-10T11:58:30;8.10;;;6.93;;
29362;SDS011;16349;53.672;10.014;2023-05-10T12:00:57;9.17;;;7.33;;
29362;SDS011;16349;53.672;10.014;2023-05-10T12:03:24;8.20;;;7.33;;
29362;SDS011;16349;53.672;10.014;2023-05-10T12:05:51;8.20;;;7.13;;
29362;SDS011;16349;53.672;10.014;2023-05-10T12:08:20;7.93;;;6.70;;
29362;SDS011;16349;53.672;10.014;2023-05-10T12:10:50;8.07;;;7.37;;
29362;SDS011;16349;53.672;10.014;2023-05-10T12:13:18;9.83;;;7.93;;
29362;SDS011;16349;53.672;10.014;2023-05-10T12:15:46;9.40;;;7.57;;
29362;SDS011;16349;53.672;10.014;2023-05-10T12:18:13;8.93;;;8.03;;
29362;SDS011;16349;53.672;10.014;2023-05-10T12:20:40;9.83;;;8.83;;
29362;SDS011;16349;53.672;10.014;2023-05-10T12:23:08;10.20;;;9.30;;
29362;SDS011;16349;53.672;10.014;2023-05-10T12:25:36;10.07;;;9.07;;
29362;SDS011;16349;53.672;10.014;2023-05-10T12:28:05;9.50;;;8.60;;
29362;SDS011;16349;53.672;10.014;2023-05-10T12:30:34;11.73;;;10.50;;
29362;SDS011;16349;53.672;10.014;2023-05-10T12:33:01;10.40;;;9.40;;
29362;SDS011;16349;53.672;10.014;2023-05-10T12:35:38;12.13;;;9.63;;
29362;SDS011;16349;53.672;10.014;2023-05-10T12:38:24;10.20;;;9.27;;
29362;SDS011;16349;53.672;10.014;2023-05-10T12:40:51;10.20;;;9.20;;
29362;SDS011;16349;53.672;10.014;2023-05-10T12:43:20;10.53;;;9.20;;
29362;SDS011;16349;53.672;10.014;2023-05-10T12:45:47;10.17;;;8.83;;
29362;SDS011;16349;53.672;10.014;2023-05-10T12:48:14;9.67;;;8.77;;
29362;SDS011;16349;53.672;10.014;2023-05-10T12:50:40;11.97;;;9.00;;
29362;SDS011;16349;53.672;10.014;2023-05-10T12:53:07;10.30;;;9.40;;
29362;SDS011;16349;53.672;10.014;2023-05-10T12:55:34;8.93;;;8.13;;
29362;SDS011;16349;53.672;10.014;2023-05-10T12:58:00;8.33;;;7.53;;
29362;SDS011;16349;53.672;10.014;2023-05-10T13:00:29;9.13;;;8.07;;
29362;SDS011;16349;53.672;10.014;2023-05-10T13:02:55;8.30;;;7.53;;
29362;SDS011;16349;53.672;10.014;2023-05-10T13:05:22;7.83;;;7.10;;
29362;SDS011;16349;53.672;10.014;2023-05-10T13:07:49;7.50;;;6.70;;
29362;SDS011;16349;53.672;10.014;2023-05-10T13:10:16;8.77;;;7.97;;
29362;SDS011;16349;53.672;10.014;2023-05-10T13:12:43;8.10;;;7.40;;
29362;SDS011;16349;53.672;10.014;2023-05-10T13:15:10;6.43;;;5.93;;
29362;SDS011;16349;53.672;10.014;2023-05-10T13:17:38;6.87;;;6.17;;
29362;SDS011;16349;53.672;10.014;2023-05-10T13:20:06;7.03;;;6.43;;
29362;SDS011;16349;53.672;10.014;2023-05-10T13:22:33;7.53;;;6.77;;
29362;SDS011;16349;53.672;10.014;2023-05-10T13:25:00;7.40;;;6.70;;
29362;SDS011;16349;53.672;10.014;2023-05-10T13:27:27;7.10;;;6.40;;
29362;SDS011;16349;53.672;10.014;2023-05-10T13:29:54;7.00;;;6.20;;
29362;SDS011;16349;53.672;10.014;2023-05-10T13:32:21;6.67;;;6.07;;
29362;SDS011;16349;53.672;10.014;2023-05-10T13:34:49;6.27;;;5.70;;
29362;SDS011;16349;53.672;10.014;2023-05-10T13:37:16;5.37;;;4.97;;
29362;SDS011;16349;53.672;10.014;2023-05-10T13:39:42;5.67;;;5.17;;
29362;SDS011;16349;53.672;10.014;2023-05-10T13:42:09;5.13;;;4.73;;
29362;SDS011;16349;53.672;10.014;2023-05-10T13:44:36;5.53;;;4.90;;
29362;SDS011;16349;53.672;10.014;2023-05-10T13:47:03;5.70;;;5.20;;
29362;SDS011;16349;53.672;10.014;2023-05-10T13:49:30;6.37;;;5.73;;
29362;SDS011;16349;53.672;10.014;2023-05-10T13:51:58;5.03;;;4.60;;
29362;SDS011;16349;53.672;10.014;2023-05-10T13:54:30;6.37;;;5.83;;
29362;SDS011;16349;53.672;10.014;2023-05-10T13:56:58;6.47;;;5.87;;
29362;SDS011;16349;53.672;10.014;2023-05-10T13:59:25;6.97;;;6.27;;
29362;SDS011;16349;53.672;10.014;2023-05-10T14:01:51;6.77;;;5.60;;
29362;SDS011;16349;53.672;10.014;2023-05-10T14:04:18;6.40;;;5.90;;
29362;SDS011;16349;53.672;10.014;2023-05-10T14:06:45;6.90;;;6.20;;
29362;SDS011;16349;53.672;10.014;2023-05-10T14:09:13;6.20;;;5.60;;
29362;SDS011;16349;53.672;10.014;2023-05-10T14:11:40;6.67;;;6.07;;
29362;SDS011;16349;53.672;10.014;2023-05-10T14:14:08;6.93;;;5.60;;
29362;SDS011;16349;53.672;10.014;2023-05-10T14:16:35;6.43;;;5.93;;
29362;SDS011;16349;53.672;10.014;2023-05-10T14:19:02;6.23;;;5.73;;
29362;SDS011;16349;53.672;10.014;2023-05-10T14:21:29;6.73;;;5.97;;
29362;SDS011;16349;53.672;10.014;2023-05-10T14:23:55;6.53;;;5.93;;
29362;SDS011;16349;53.672;10.014;2023-05-10T14:26:24;6.40;;;5.80;;
29362;SDS011;16349;53.672;10.014;2023-05-10T14:28:51;6.43;;;6.00;;
29362;SDS011;16349;53.672;10.014;2023-05-10T14:31:18;5.87;;;5.37;;
29362;SDS011;16349;53.672;10.014;2023-05-10T14:33:45;6.10;;;5.60;;
29362;SDS011;16349;53.672;10.014;2023-05-10T14:36:12;5.57;;;5.07;;
29362;SDS011;16349;53.672;10.014;2023-05-10T14:38:39;6.00;;;5.50;;
29362;SDS011;16349;53.672;10.014;2023-05-10T14:41:06;6.00;;;5.43;;
29362;SDS011;16349;53.672;10.014;2023-05-10T14:43:34;5.87;;;5.37;;